createdAt,value
2019-05-02T00:02:30.533Z,97157.19
2019-05-02T00:04:58.716Z,97152.61
2019-05-02T00:07:26.529Z,97144.27
2019-05-02T00:09:54.345Z,97143.91
2019-05-02T00:12:22.684Z,97150.19
2019-05-02T00:14:56.458Z,97142.69
2019-05-02T00:17:25.727Z,97114.38
2019-05-02T00:19:52.965Z,97142.66
2019-05-02T00:22:20.958Z,97141.11
2019-05-02T00:24:48.556Z,97123.31
2019-05-02T00:27:16.297Z,97141.92
2019-05-02T00:29:43.971Z,97143.98
2019-05-02T00:32:11.695Z,97142.13
2019-05-02T00:34:39.330Z,97144.68
2019-05-02T00:37:07.091Z,97143.08
2019-05-02T00:39:34.650Z,97140.42
2019-05-02T00:42:12.388Z,97137.97
2019-05-02T00:44:31.853Z,97131.91
2019-05-02T00:47:10.878Z,97134.94
2019-05-02T00:49:38.584Z,97128.30
2019-05-02T00:52:06.554Z,97134.41
2019-05-02T00:54:34.472Z,97130.78
2019-05-02T00:57:02.333Z,97134.17
2019-05-02T00:59:30.152Z,97126.78
2019-05-02T01:02:20.363Z,97130.75
2019-05-02T01:04:48.653Z,97126.59
2019-05-02T01:07:20.515Z,97128.56
2019-05-02T01:09:46.874Z,97122.17
2019-05-02T01:12:26.344Z,97127.91
2019-05-02T01:14:45.475Z,97128.81
2019-05-02T01:17:13.279Z,97126.69
2019-05-02T01:19:40.959Z,97120.53
2019-05-02T01:22:10.716Z,97115.22
2019-05-02T01:24:39.941Z,97121.85
2019-05-02T01:27:15.655Z,97121.27
2019-05-02T01:30:11.461Z,97117.34
2019-05-02T01:33:01.489Z,97109.66
2019-05-02T01:35:46.452Z,97112.26
2019-05-02T01:38:19.776Z,97107.56
2019-05-02T01:40:53.066Z,97099.20
2019-05-02T01:43:23.992Z,97098.98
2019-05-02T01:45:52.034Z,97100.06
2019-05-02T01:48:20.042Z,97096.29
2019-05-02T01:50:47.798Z,97098.20
2019-05-02T01:53:15.467Z,97098.55
2019-05-02T01:55:43.220Z,97099.84
2019-05-02T01:58:14.930Z,97090.17
2019-05-02T02:00:44.465Z,97097.75
2019-05-02T02:03:10.422Z,97096.64
2019-05-02T02:05:38.542Z,97098.84
2019-05-02T02:08:06.419Z,97097.65
2019-05-02T02:10:34.130Z,97089.72
2019-05-02T02:13:04.911Z,97088.50
2019-05-02T02:15:31.734Z,97099.96
2019-05-02T02:17:59.396Z,97103.61
2019-05-02T02:20:29.984Z,97096.47
2019-05-02T02:23:28.977Z,97097.61
2019-05-02T02:26:01.628Z,97091.05
2019-05-02T02:28:31.989Z,97090.09
2019-05-02T02:31:05.073Z,97087.04
2019-05-02T02:33:28.262Z,97094.61
2019-05-02T02:35:55.901Z,97090.90
2019-05-02T02:38:26.937Z,97091.05
2019-05-02T02:40:53.305Z,97093.41
2019-05-02T02:43:33.670Z,97090.71
2019-05-02T02:46:04.236Z,97088.58
2019-05-02T02:48:33.577Z,97081.80
2019-05-02T02:51:02.414Z,97083.66
2019-05-02T02:53:30.234Z,97085.87
2019-05-02T02:56:01.695Z,97086.88
2019-05-02T02:58:29.145Z,97079.94
2019-05-02T03:00:57.131Z,97084.73
2019-05-02T03:03:27.736Z,97084.41
2019-05-02T03:05:58.805Z,97089.08
2019-05-02T03:08:24.362Z,97088.23
2019-05-02T03:10:52.115Z,97094.19
2019-05-02T03:13:51.344Z,97090.23
2019-05-02T03:16:11.927Z,97085.27
2019-05-02T03:18:40.566Z,97092.35
2019-05-02T03:21:13.185Z,97094.63
2019-05-02T03:23:39.635Z,97093.87
2019-05-02T03:26:08.070Z,97093.48
2019-05-02T03:28:36.921Z,97104.25
2019-05-02T03:31:21.626Z,97098.38
2019-05-02T03:33:52.591Z,97098.41
2019-05-02T03:36:03.967Z,97102.34
2019-05-02T03:38:34.853Z,97098.20
2019-05-02T03:41:01.476Z,97101.70
2019-05-02T03:43:28.997Z,97069.13
2019-05-02T03:45:56.734Z,97094.25
2019-05-02T03:48:25.579Z,97099.31
2019-05-02T03:50:55.083Z,97094.84
2019-05-02T03:53:25.331Z,97097.60
2019-05-02T03:55:52.876Z,97101.55
2019-05-02T03:58:20.545Z,97101.17
2019-05-02T04:01:00.801Z,97095.82
2019-05-02T04:03:18.955Z,97092.67
2019-05-02T04:05:46.855Z,97095.13
2019-05-02T04:08:20.765Z,97093.51
2019-05-02T04:11:25.576Z,97094.45
2019-05-02T04:13:54.447Z,97100.32
2019-05-02T04:16:24.772Z,97104.28
2019-05-02T04:18:55.846Z,97094.66
2019-05-02T04:21:25.912Z,97103.98
2019-05-02T04:23:52.989Z,97108.16
2019-05-02T04:26:20.815Z,97109.19
2019-05-02T04:28:51.886Z,97111.36
2019-05-02T04:31:18.195Z,97116.68
2019-05-02T04:33:45.986Z,97114.00
2019-05-02T04:36:17.419Z,97084.09
2019-05-02T04:38:47.871Z,97107.61
2019-05-02T04:41:21.353Z,97114.60
2019-05-02T04:43:51.447Z,97112.73
2019-05-02T04:46:22.050Z,97115.66
2019-05-02T04:48:48.648Z,97112.55
2019-05-02T04:51:16.345Z,97111.12
2019-05-02T04:53:45.253Z,97106.89
2019-05-02T04:56:10.927Z,97118.69
2019-05-02T04:58:40.691Z,97110.38
2019-05-02T05:01:10.167Z,97109.80
2019-05-02T05:03:37.755Z,97119.50
2019-05-02T05:06:10.786Z,97119.50
2019-05-02T05:08:34.828Z,97120.05
2019-05-02T05:11:02.454Z,97116.36
2019-05-02T05:13:30.046Z,97117.95
2019-05-02T05:15:57.649Z,97117.31
2019-05-02T05:18:27.389Z,97115.12
2019-05-02T05:20:54.973Z,97113.87
2019-05-02T05:23:51.832Z,97114.94
2019-05-02T05:26:17.605Z,97115.05
2019-05-02T05:28:45.330Z,97115.69
2019-05-02T05:31:18.439Z,97116.30
2019-05-02T05:33:42.654Z,97119.75
2019-05-02T05:36:10.592Z,97121.09
2019-05-02T05:38:40.566Z,97112.72
2019-05-02T05:41:11.438Z,97104.98
2019-05-02T05:43:38.626Z,97111.76
2019-05-02T05:46:12.341Z,97109.55
2019-05-02T05:48:39.159Z,97109.95
2019-05-02T05:51:07.287Z,97101.88
2019-05-02T05:53:37.369Z,97103.50
2019-05-02T05:56:04.957Z,97106.27
2019-05-02T05:58:32.772Z,97098.23
2019-05-02T06:01:00.462Z,97095.98
2019-05-02T06:03:28.052Z,97096.53
2019-05-02T06:05:57.653Z,97093.56
2019-05-02T06:08:25.545Z,97089.13
2019-05-02T06:10:53.162Z,97087.83
2019-05-02T06:13:20.850Z,97081.89
2019-05-02T06:16:01.290Z,97087.82
2019-05-02T06:18:18.016Z,97083.23
2019-05-02T06:20:45.726Z,97084.75
2019-05-02T06:23:13.272Z,97086.98
2019-05-02T06:25:42.746Z,97081.91
2019-05-02T06:28:11.678Z,97082.00
2019-05-02T06:30:39.318Z,97087.02
2019-05-02T06:33:06.866Z,97081.79
2019-05-02T06:35:34.590Z,97079.61
2019-05-02T06:38:02.175Z,97071.24
2019-05-02T06:40:29.833Z,97066.05
2019-05-02T06:42:57.397Z,97066.70
2019-05-02T06:45:25.201Z,97069.72
2019-05-02T06:47:52.842Z,97068.27
2019-05-02T06:50:20.700Z,97069.89
2019-05-02T06:52:49.909Z,97068.89
2019-05-02T06:55:17.657Z,97062.26
2019-05-02T06:57:45.204Z,97056.94
2019-05-02T07:00:13.108Z,97070.13
2019-05-02T07:02:41.970Z,97061.28
2019-05-02T07:05:09.807Z,97061.39
2019-05-02T07:07:37.775Z,97059.77
2019-05-02T07:10:07.443Z,97049.09
2019-05-02T07:12:35.259Z,97053.91
2019-05-02T07:15:08.320Z,97053.02
2019-05-02T07:17:39.297Z,97052.50
2019-05-02T07:20:07.096Z,97050.34
2019-05-02T07:22:38.904Z,97055.16
2019-05-02T07:25:06.868Z,97050.84
2019-05-02T07:27:35.609Z,97053.25
2019-05-02T07:30:04.345Z,97051.56
2019-05-02T07:32:32.982Z,97050.39
2019-05-02T07:35:00.654Z,97046.42
2019-05-02T07:37:28.266Z,97058.51
2019-05-02T07:39:56.916Z,97050.47
2019-05-02T07:42:24.584Z,97044.81
2019-05-02T07:44:52.145Z,97042.38
2019-05-02T07:47:19.673Z,97044.98
2019-05-02T07:49:47.311Z,97046.12
2019-05-02T07:52:14.909Z,97030.05
2019-05-02T07:54:42.557Z,97027.23
2019-05-02T07:57:10.132Z,97028.83
2019-05-02T07:59:37.765Z,97013.09
2019-05-02T08:02:05.366Z,97025.34
2019-05-02T08:04:33.079Z,97022.02
2019-05-02T08:07:00.588Z,97017.34
2019-05-02T08:09:28.220Z,97018.27
2019-05-02T08:11:55.820Z,97019.14
2019-05-02T08:14:24.588Z,97017.08
2019-05-02T08:17:04.889Z,97011.95
2019-05-02T08:19:23.539Z,97010.80
2019-05-02T08:21:51.417Z,97002.31
2019-05-02T08:24:20.661Z,97005.54
2019-05-02T08:27:23.347Z,97004.57
2019-05-02T08:29:52.164Z,97008.19
2019-05-02T08:32:19.848Z,96999.03
2019-05-02T08:34:51.615Z,96999.54
2019-05-02T08:37:17.006Z,97001.88
2019-05-02T08:39:44.729Z,96991.34
2019-05-02T08:42:12.384Z,96994.16
2019-05-02T08:44:50.758Z,96996.94
2019-05-02T08:47:18.763Z,96987.42
2019-05-02T08:49:39.217Z,96988.50
2019-05-02T08:52:06.922Z,96985.16
2019-05-02T08:54:34.652Z,96985.94
2019-05-02T08:57:02.360Z,96975.65
2019-05-02T08:59:30.075Z,96980.98
2019-05-02T09:01:57.734Z,96977.52
2019-05-02T09:04:29.048Z,96980.54
2019-05-02T09:06:58.847Z,96973.89
2019-05-02T09:09:28.063Z,96976.83
2019-05-02T09:12:03.256Z,96968.57
2019-05-02T09:14:23.662Z,96971.01
2019-05-02T09:16:52.385Z,96964.30
2019-05-02T09:19:21.336Z,96964.41
2019-05-02T09:21:49.577Z,96967.73
2019-05-02T09:24:21.151Z,96955.31
2019-05-02T09:26:46.812Z,96947.79
2019-05-02T09:29:14.491Z,96948.27
2019-05-02T09:31:45.918Z,96942.88
2019-05-02T09:34:11.854Z,96949.52
2019-05-02T09:36:39.670Z,96944.20
2019-05-02T09:39:07.425Z,96945.19
2019-05-02T09:41:36.364Z,96937.08
2019-05-02T09:44:04.491Z,96940.97
2019-05-02T09:46:32.551Z,96939.25
2019-05-02T09:49:04.305Z,96931.09
2019-05-02T09:51:32.300Z,96925.22
2019-05-02T09:54:04.703Z,96919.27
2019-05-02T09:56:29.314Z,96919.39
2019-05-02T09:59:04.766Z,96906.56
2019-05-02T10:01:33.841Z,96893.23
2019-05-02T10:04:02.345Z,96899.84
2019-05-02T10:06:32.138Z,96896.48
2019-05-02T10:08:59.689Z,96889.11
2019-05-02T10:11:27.534Z,96888.88
2019-05-02T10:13:55.529Z,96881.50
2019-05-02T10:16:27.154Z,96882.67
2019-05-02T10:18:52.909Z,96877.21
2019-05-02T10:21:22.851Z,96873.68
2019-05-02T10:23:51.780Z,96866.19
2019-05-02T10:26:24.533Z,96868.47
2019-05-02T10:28:53.248Z,96855.84
2019-05-02T10:31:21.830Z,96854.80
2019-05-02T10:33:49.660Z,96851.61
2019-05-02T10:36:19.816Z,96858.28
2019-05-02T10:38:48.958Z,96848.77
2019-05-02T10:41:16.352Z,96843.41
2019-05-02T10:43:46.941Z,96837.73
2019-05-02T10:46:37.656Z,96836.06
2019-05-02T10:49:12.506Z,96824.38
2019-05-02T10:51:41.862Z,96822.98
2019-05-02T10:54:11.890Z,96821.78
2019-05-02T10:56:39.349Z,96816.98
2019-05-02T10:59:07.019Z,96816.63
2019-05-02T11:01:48.895Z,96799.24
2019-05-02T11:04:16.585Z,96807.28
2019-05-02T11:06:46.256Z,96807.21
2019-05-02T11:09:16.735Z,96806.83
2019-05-02T11:11:43.399Z,96798.42
2019-05-02T11:14:23.482Z,96797.44
2019-05-02T11:16:58.525Z,96788.75
2019-05-02T11:19:52.303Z,96779.56
2019-05-02T11:22:20.159Z,96776.63
2019-05-02T11:24:47.856Z,96768.98
2019-05-02T11:27:15.531Z,96769.91
2019-05-02T11:29:43.166Z,96773.16
2019-05-02T11:32:12.818Z,96764.64
2019-05-02T11:34:42.065Z,96749.96
2019-05-02T11:37:12.089Z,96760.11
2019-05-02T11:39:49.054Z,96748.17
2019-05-02T11:42:09.669Z,96734.70
2019-05-02T11:44:37.334Z,96747.91
2019-05-02T11:47:04.894Z,96740.23
2019-05-02T11:49:32.599Z,96726.50
2019-05-02T11:52:04.343Z,96738.35
2019-05-02T11:54:31.845Z,96724.39
2019-05-02T11:56:59.437Z,96732.82
2019-05-02T11:59:28.079Z,96713.66
2019-05-02T12:02:17.530Z,96719.88
2019-05-02T12:04:41.803Z,96708.05
2019-05-02T12:07:09.597Z,96717.83
2019-05-02T12:09:37.331Z,96704.45
2019-05-02T12:12:05.052Z,96703.67
2019-05-02T12:14:36.233Z,96684.63
2019-05-02T12:17:02.680Z,96703.00
2019-05-02T12:19:32.245Z,96690.80
2019-05-02T12:22:02.449Z,96684.63
2019-05-02T12:24:31.891Z,96696.66
2019-05-02T12:26:59.752Z,96685.53
2019-05-02T12:29:27.480Z,96675.86
2019-05-02T12:32:15.707Z,96675.36
2019-05-02T12:34:43.503Z,96670.86
2019-05-02T12:37:12.600Z,96661.59
2019-05-02T12:39:42.566Z,96667.31
2019-05-02T12:42:12.587Z,96651.31
2019-05-02T12:44:40.054Z,96651.91
2019-05-02T12:47:07.928Z,96655.97
2019-05-02T12:49:35.516Z,96635.05
2019-05-02T12:52:03.259Z,96639.61
2019-05-02T12:54:32.528Z,96638.90
2019-05-02T12:57:02.061Z,96630.23
2019-05-02T12:59:29.819Z,96629.21
2019-05-02T13:01:59.569Z,96625.77
2019-05-02T13:04:28.928Z,96622.84
2019-05-02T13:06:56.778Z,96623.19
2019-05-02T13:09:24.916Z,96623.87
2019-05-02T13:12:10.306Z,96623.70
2019-05-02T13:14:42.653Z,96618.19
2019-05-02T13:17:13.714Z,96614.78
2019-05-02T13:19:55.381Z,96612.68
2019-05-02T13:22:33.064Z,96607.00
2019-05-02T13:25:04.211Z,96599.39
2019-05-02T13:27:42.999Z,96615.17
2019-05-02T13:30:03.376Z,96607.22
2019-05-02T13:32:48.208Z,96600.28
2019-05-02T13:35:34.258Z,96593.22
2019-05-02T13:38:06.546Z,96590.89
2019-05-02T13:40:41.677Z,96595.66
2019-05-02T13:43:09.567Z,96590.92
2019-05-02T13:46:09.801Z,96587.47
2019-05-02T13:48:37.668Z,96586.80
2019-05-02T13:51:05.502Z,96575.46
2019-05-02T13:53:34.646Z,96571.58
2019-05-02T13:56:22.113Z,96566.89
2019-05-02T13:58:51.772Z,96567.75
2019-05-02T14:01:19.791Z,96558.48
2019-05-02T14:03:47.667Z,96548.16
2019-05-02T14:06:15.554Z,96549.42
2019-05-02T14:08:58.081Z,96546.54
2019-05-02T14:11:44.397Z,96551.31
2019-05-02T14:14:12.569Z,96538.84
2019-05-02T14:16:41.890Z,96533.70
2019-05-02T14:19:09.781Z,96502.05
2019-05-02T14:21:37.443Z,96531.94
2019-05-02T14:24:05.252Z,96515.83
2019-05-02T14:26:33.270Z,96525.25
2019-05-02T14:29:02.568Z,96522.34
2019-05-02T14:31:32.233Z,96519.63
2019-05-02T14:34:18.159Z,96509.56
2019-05-02T14:36:45.770Z,96500.03
2019-05-02T14:39:13.478Z,96508.77
2019-05-02T14:41:44.429Z,96503.86
2019-05-02T14:44:11.981Z,96501.66
2019-05-02T14:46:39.744Z,96496.55
2019-05-02T14:49:07.613Z,96496.91
2019-05-02T14:51:36.717Z,96489.67
2019-05-02T14:54:08.117Z,96489.00
2019-05-02T14:56:52.188Z,96484.95
2019-05-02T14:59:22.581Z,96483.45
2019-05-02T15:01:57.932Z,96484.75
2019-05-02T15:04:23.136Z,96472.02
2019-05-02T15:06:52.588Z,96475.25
2019-05-02T15:09:22.531Z,96472.22
2019-05-02T15:11:59.436Z,96479.41
2019-05-02T15:14:32.943Z,96470.75
2019-05-02T15:17:02.555Z,96476.69
2019-05-02T15:19:30.316Z,96467.41
2019-05-02T15:21:57.940Z,96465.03
2019-05-02T15:24:27.778Z,96445.14
2019-05-02T15:26:55.076Z,96466.50
2019-05-02T15:29:27.127Z,96459.13
2019-05-02T15:32:12.718Z,96459.64
2019-05-02T15:35:12.941Z,96455.27
2019-05-02T15:37:41.724Z,96460.89
2019-05-02T15:40:43.241Z,96455.12
2019-05-02T15:42:48.550Z,96451.77
2019-05-02T15:45:16.477Z,96449.23
2019-05-02T15:47:45.458Z,96449.23
2019-05-02T15:50:14.815Z,96441.55
2019-05-02T15:52:45.887Z,96422.50
2019-05-02T15:55:13.905Z,96432.82
2019-05-02T15:57:45.870Z,96429.41
2019-05-02T16:00:21.705Z,96428.48
2019-05-02T16:02:44.132Z,96427.85
2019-05-02T16:05:12.984Z,96427.85
2019-05-02T16:07:43.318Z,96429.39
2019-05-02T16:10:13.250Z,96423.33
2019-05-02T16:12:43.182Z,96422.66
2019-05-02T16:15:18.186Z,96422.66
2019-05-02T16:17:42.308Z,96409.94
2019-05-02T16:20:17.219Z,96418.94
2019-05-02T16:22:49.557Z,96427.17
2019-05-02T16:25:14.572Z,96427.17
2019-05-02T16:27:44.361Z,96423.98
2019-05-02T16:30:14.254Z,96425.07
2019-05-02T16:32:58.525Z,96428.38
2019-05-02T16:35:27.134Z,96437.34
2019-05-02T16:37:56.073Z,96427.67
2019-05-02T16:40:29.754Z,96424.42
2019-05-02T16:42:53.860Z,96421.95
2019-05-02T16:45:22.828Z,96419.13
2019-05-02T16:47:58.800Z,96414.47
2019-05-02T16:50:22.915Z,96410.61
2019-05-02T16:52:52.880Z,96413.91
2019-05-02T16:55:26.341Z,96407.91
2019-05-02T16:57:51.916Z,96408.61
2019-05-02T17:00:24.862Z,96411.16
2019-05-02T17:02:52.471Z,96409.39
2019-05-02T17:05:21.973Z,96408.31
2019-05-02T17:07:56.395Z,96404.78
2019-05-02T17:10:36.647Z,96417.16
2019-05-02T17:13:04.345Z,96419.25
2019-05-02T17:15:35.461Z,96420.27
2019-05-02T17:18:05.107Z,96422.05
2019-05-02T17:20:32.707Z,96420.50
2019-05-02T17:23:05.368Z,96427.56
2019-05-02T17:25:32.096Z,96423.57
2019-05-02T17:28:02.381Z,96421.33
2019-05-02T17:30:33.711Z,96426.59
2019-05-02T17:32:58.858Z,96405.92
2019-05-02T17:35:26.637Z,96431.27
2019-05-02T17:37:54.204Z,96430.88
2019-05-02T17:40:25.885Z,96434.62
2019-05-02T17:42:52.532Z,96428.02
2019-05-02T17:45:20.295Z,96444.91
2019-05-02T17:47:47.874Z,96443.21
2019-05-02T17:50:42.251Z,96447.34
2019-05-02T17:53:11.663Z,96446.15
2019-05-02T17:55:40.768Z,96445.84
2019-05-02T17:58:12.494Z,96449.70
2019-05-02T18:00:43.064Z,96450.45
2019-05-02T18:03:12.429Z,96450.27
2019-05-02T18:05:41.877Z,96454.58
2019-05-02T18:08:10.869Z,96450.16
2019-05-02T18:10:39.303Z,96459.67
2019-05-02T18:13:07.093Z,96462.42
2019-05-02T18:15:36.240Z,96465.52
2019-05-02T18:18:06.831Z,96465.09
2019-05-02T18:20:37.272Z,96474.39
2019-05-02T18:23:05.798Z,96480.83
2019-05-02T18:25:32.863Z,96476.34
2019-05-02T18:28:02.278Z,96459.77
2019-05-02T18:30:29.913Z,96478.39
2019-05-02T18:33:02.234Z,96479.55
2019-05-02T18:35:27.008Z,96488.47
2019-05-02T18:37:54.608Z,96494.01
2019-05-02T18:40:27.674Z,96494.35
2019-05-02T18:42:52.066Z,96492.02
2019-05-02T18:45:25.400Z,96495.20
2019-05-02T18:47:54.033Z,96485.80
2019-05-02T18:50:36.751Z,96493.33
2019-05-02T18:53:03.941Z,96489.59
2019-05-02T18:55:31.824Z,96497.27
2019-05-02T18:58:02.275Z,96496.06
2019-05-02T19:00:37.814Z,96499.86
2019-05-02T19:03:02.747Z,96502.32
2019-05-02T19:05:32.558Z,96509.66
2019-05-02T19:08:02.467Z,96516.45
2019-05-02T19:10:32.221Z,96492.20
2019-05-02T19:13:00.994Z,96511.52
2019-05-02T19:15:34.370Z,96517.27
2019-05-02T19:18:02.453Z,96518.70
2019-05-02T19:21:03.156Z,96497.88
2019-05-02T19:23:32.059Z,96521.52
2019-05-02T19:26:03.752Z,96520.60
2019-05-02T19:28:48.073Z,96527.37
2019-05-02T19:31:15.673Z,96525.96
2019-05-02T19:33:44.315Z,96522.23
2019-05-02T19:36:16.175Z,96491.62
2019-05-02T19:38:42.834Z,96524.09
2019-05-02T19:41:11.663Z,96535.34
2019-05-02T19:43:40.496Z,96532.80
2019-05-02T19:46:08.991Z,96498.55
2019-05-02T19:48:39.007Z,96537.34
2019-05-02T19:51:12.688Z,96542.55
2019-05-02T19:53:35.903Z,96543.67
2019-05-02T19:56:03.633Z,96538.88
2019-05-02T19:58:32.058Z,96519.70
2019-05-02T20:01:02.369Z,96541.36
2019-05-02T20:03:32.376Z,96545.42
2019-05-02T20:06:02.267Z,96519.63
2019-05-02T20:08:29.903Z,96545.19
2019-05-02T20:10:58.492Z,96539.63
2019-05-02T20:13:28.548Z,96538.75
2019-05-02T20:16:05.770Z,96537.55
2019-05-02T20:18:36.669Z,96540.23
2019-05-02T20:21:24.202Z,96533.72
2019-05-02T20:23:48.905Z,96533.72
2019-05-02T20:26:17.160Z,96536.12
2019-05-02T20:28:45.136Z,96537.52
2019-05-02T20:31:12.717Z,96518.92
2019-05-02T20:33:42.895Z,96532.50
2019-05-02T20:36:12.365Z,96535.44
2019-05-02T20:38:41.773Z,96535.52
2019-05-02T20:41:10.198Z,96541.61
2019-05-02T20:43:37.875Z,96542.38
2019-05-02T20:46:05.490Z,96543.66
2019-05-02T20:48:33.463Z,96538.33
2019-05-02T20:51:02.677Z,96537.05
2019-05-02T20:53:31.840Z,96534.11
2019-05-02T20:56:01.793Z,96534.45
2019-05-02T20:58:29.688Z,96529.75
2019-05-02T21:01:07.835Z,96533.97
2019-05-02T21:03:26.909Z,96527.80
2019-05-02T21:06:04.837Z,96528.33
2019-05-02T21:08:52.434Z,96532.69
2019-05-02T21:11:19.898Z,96527.91
2019-05-02T21:13:47.528Z,96527.13
2019-05-02T21:16:15.144Z,96529.25
2019-05-02T21:18:42.818Z,96531.52
2019-05-02T21:21:12.419Z,96527.06
2019-05-02T21:23:44.825Z,96525.66
2019-05-02T21:26:09.414Z,96526.61
2019-05-02T21:28:37.076Z,96530.04
2019-05-02T21:31:04.722Z,96527.22
2019-05-02T21:33:35.582Z,96523.08
2019-05-02T21:36:03.373Z,96525.31
2019-05-02T21:38:32.025Z,96534.88
2019-05-02T21:40:59.713Z,96536.77
2019-05-02T21:43:27.421Z,96534.45
2019-05-02T21:45:55.200Z,96537.31
2019-05-02T21:48:24.324Z,96539.98
2019-05-02T21:51:12.543Z,96540.30
2019-05-02T21:53:58.279Z,96542.92
2019-05-02T21:56:42.932Z,96544.44
2019-05-02T21:59:12.144Z,96543.27
2019-05-02T22:01:53.854Z,96553.96
2019-05-02T22:04:22.739Z,96558.66
2019-05-02T22:06:52.180Z,96553.90
2019-05-02T22:09:20.187Z,96563.80
2019-05-02T22:11:47.831Z,96561.14
2019-05-02T22:14:15.649Z,96566.04
2019-05-02T22:16:43.372Z,96565.35
2019-05-02T22:19:11.104Z,96560.29
2019-05-02T22:21:38.851Z,96560.70
2019-05-02T22:24:11.265Z,96558.16
2019-05-02T22:26:36.359Z,96559.80
2019-05-02T22:29:04.203Z,96552.91
2019-05-02T22:31:32.457Z,96552.12
2019-05-02T22:34:01.996Z,96560.30
2019-05-02T22:36:30.016Z,96562.61
2019-05-02T22:39:32.345Z,96565.94
2019-05-02T22:42:01.932Z,96567.81
2019-05-02T22:44:29.661Z,96571.05
2019-05-02T22:46:57.325Z,96569.86
2019-05-02T22:49:24.875Z,96567.55
2019-05-02T22:51:52.536Z,96564.96
2019-05-02T22:54:27.771Z,96555.49
2019-05-02T22:56:51.946Z,96563.02
2019-05-02T22:59:19.479Z,96563.02
2019-05-02T23:01:47.142Z,96567.94
2019-05-02T23:04:14.750Z,96568.28
2019-05-02T23:06:44.238Z,96560.80
2019-05-02T23:09:12.908Z,96553.61
2019-05-02T23:11:42.574Z,96528.81
2019-05-02T23:14:12.249Z,96550.79
2019-05-02T23:16:42.337Z,96532.47
2019-05-02T23:19:09.452Z,96559.50
2019-05-02T23:21:37.143Z,96556.87
2019-05-02T23:24:09.646Z,96554.11
2019-05-02T23:27:02.636Z,96557.28
2019-05-02T23:29:31.816Z,96554.42
2019-05-02T23:31:59.566Z,96541.08
2019-05-02T23:34:27.222Z,96523.75
2019-05-02T23:36:54.970Z,96544.91
2019-05-02T23:39:22.609Z,96542.42
2019-05-02T23:41:50.215Z,96544.11
2019-05-02T23:44:17.787Z,96545.30
2019-05-02T23:46:45.440Z,96538.59
2019-05-02T23:49:13.021Z,96536.23
2019-05-02T23:51:42.625Z,96537.92
2019-05-02T23:54:10.176Z,96537.77
2019-05-02T23:56:37.857Z,96542.31
2019-05-02T23:59:05.594Z,96538.34
